Time,TemperatureF,DewpointF,PressureIn,WindDirection,WindDirectionDegrees,WindSpeedMPH,WindSpeedGustMPH,Humidity,HourlyPrecipIn,Conditions,Clouds,dailyrainin,SoftwareType,DateUTC
2013-07-01 00:00:00,57.3,56.2,29.94,WNW,299,0.0,0.0,96,0.00,,,0.00,Wunderground v.1.15,2013-07-01 07:00:00,
2013-07-01 00:10:00,57.2,56.1,29.94,WNW,299,0.0,0.0,96,0.00,,,0.00,Wunderground v.1.15,2013-07-01 07:10:00,
2013-07-01 00:20:00,57.0,55.9,29.94,WNW,299,0.0,0.0,96,0.00,,,0.00,Wunderground v.1.15,2013-07-01 07:20:00,
2013-07-01 00:30:00,56.9,56.1,29.94,WNW,299,0.0,0.0,97,0.00,,,0.00,Wunderground v.1.15,2013-07-01 07:30:00,
2013-07-01 00:40:00,56.8,55.7,29.94,WNW,299,0.0,0.0,96,0.00,,,0.00,Wunderground v.1.15,2013-07-01 07:40:00,
2013-07-01 00:50:00,56.6,55.8,29.94,WNW,299,0.0,0.0,97,0.00,,,0.00,Wunderground v.1.15,2013-07-01 07:50:00,
2013-07-01 01:00:00,56.8,56.0,29.93,WNW,299,0.0,0.0,97,0.00,,,0.00,Wunderground v.1.15,2013-07-01 08:00:00,
2013-07-01 01:10:00,57.1,56.5,29.94,WNW,299,0.0,0.0,98,0.00,,,0.00,Wunderground v.1.15,2013-07-01 08:10:00,
2013-07-01 01:20:00,57.5,56.9,29.94,WNW,299,0.0,0.0,98,0.00,,,0.00,Wunderground v.1.15,2013-07-01 08:20:00,
2013-07-01 01:30:00,57.8,57.2,29.94,WNW,299,0.0,0.0,98,0.00,,,0.00,Wunderground v.1.15,2013-07-01 08:30:00,
2013-07-01 01:40:00,57.9,57.3,29.94,WNW,299,0.0,0.0,98,0.00,,,0.00,Wunderground v.1.15,2013-07-01 08:40:00,
2013-07-01 01:45:00,57.9,57.3,29.94,WNW,299,0.0,0.0,98,0.00,,,0.00,Wunderground v.1.15,2013-07-01 08:45:00,
2013-07-01 01:55:00,58.0,57.4,29.94,WNW,299,0.0,0.0,98,0.00,,,0.00,Wunderground v.1.15,2013-07-01 08:55:00,
2013-07-01 02:00:00,57.9,57.3,29.94,WNW,299,0.0,0.0,98,0.00,,,0.00,Wunderground v.1.15,2013-07-01 09:00:00,
2013-07-01 02:10:00,57.8,57.2,29.94,WNW,299,0.0,0.0,98,0.00,,,0.00,Wunderground v.1.15,2013-07-01 09:10:00,
2013-07-01 02:20:00,57.8,57.2,29.94,WNW,299,0.0,0.0,98,0.00,,,0.00,Wunderground v.1.15,2013-07-01 09:20:00,
2013-07-01 02:30:00,57.9,57.3,29.94,WNW,299,0.0,0.0,98,0.00,,,0.00,Wunderground v.1.15,2013-07-01 09:30:00,
2013-07-01 02:35:00,57.9,57.3,29.94,WNW,299,0.0,0.0,98,0.00,,,0.00,Wunderground v.1.15,2013-07-01 09:35:00,
2013-07-01 02:45:00,57.8,57.2,29.94,WNW,299,0.0,0.0,98,0.00,,,0.00,Wunderground v.1.15,2013-07-01 09:45:00,
2013-07-01 02:55:00,57.8,57.2,29.94,WNW,299,0.0,0.0,98,0.00,,,0.00,Wunderground v.1.15,2013-07-01 09:55:00,
2013-07-01 03:00:00,57.8,57.2,29.94,WNW,299,0.0,0.0,98,0.00,,,0.00,Wunderground v.1.15,2013-07-01 10:00:00,
2013-07-01 03:10:00,57.8,57.2,29.94,WNW,299,0.0,0.0,98,0.00,,,0.00,Wunderground v.1.15,2013-07-01 10:10:00,
2013-07-01 03:20:00,57.9,57.3,29.94,WNW,299,0.0,0.0,98,0.00,,,0.00,Wunderground v.1.15,2013-07-01 10:20:00,
2013-07-01 03:25:00,57.9,57.3,29.94,WNW,299,0.0,0.0,98,0.00,,,0.00,Wunderground v.1.15,2013-07-01 10:25:00,
2013-07-01 03:35:00,57.9,57.3,29.94,WNW,299,0.0,0.0,98,0.00,,,0.00,Wunderground v.1.15,2013-07-01 10:35:00,
2013-07-01 03:45:00,57.9,57.3,29.94,WNW,299,0.0,0.0,98,0.00,,,0.00,Wunderground v.1.15,2013-07-01 10:45:00,
2013-07-01 03:55:00,57.9,57.3,29.94,NW,315,0.0,0.0,98,0.00,,,0.00,Wunderground v.1.15,2013-07-01 10:55:00,
2013-07-01 04:00:00,57.9,57.3,29.94,NW,315,0.0,0.0,98,0.00,,,0.00,Wunderground v.1.15,2013-07-01 11:00:00,
2013-07-01 04:10:00,57.8,57.2,29.95,WNW,297,0.0,0.0,98,0.00,,,0.00,Wunderground v.1.15,2013-07-01 11:10:00,
2013-07-01 04:20:00,57.8,57.2,29.95,WNW,297,0.0,0.0,98,0.00,,,0.00,Wunderground v.1.15,2013-07-01 11:20:00,
2013-07-01 04:30:00,57.8,57.2,29.95,WNW,289,0.0,0.0,98,0.00,,,0.00,Wunderground v.1.15,2013-07-01 11:30:00,
2013-07-01 04:40:00,57.7,57.1,29.95,WSW,250,0.0,0.0,98,0.00,,,0.00,Wunderground v.1.15,2013-07-01 11:40:00,
2013-07-01 04:50:00,57.7,57.1,29.96,NW,323,0.0,0.0,98,0.00,,,0.00,Wunderground v.1.15,2013-07-01 11:50:00,
2013-07-01 05:01:00,57.7,57.1,29.96,WNW,295,0.0,0.0,98,0.00,,,0.00,Wunderground v.1.15,2013-07-01 12:01:00,
2013-07-01 05:10:00,57.8,57.2,29.96,NW,317,0.0,0.0,98,0.00,,,0.00,Wunderground v.1.15,2013-07-01 12:10:00,
2013-07-01 05:20:00,57.8,57.2,29.95,NW,316,0.0,0.0,98,0.00,,,0.00,Wunderground v.1.15,2013-07-01 12:20:00,
2013-07-01 05:30:00,57.8,57.2,29.96,NW,311,0.0,0.0,98,0.00,,,0.00,Wunderground v.1.15,2013-07-01 12:30:00,
2013-07-01 05:40:00,57.9,57.3,29.96,North,10,0.0,0.0,98,0.00,,,0.00,Wunderground v.1.15,2013-07-01 12:40:00,
2013-07-01 05:45:00,57.9,57.3,29.96,North,349,0.0,0.0,98,0.00,,,0.00,Wunderground v.1.15,2013-07-01 12:45:00,
2013-07-01 05:55:00,58.0,57.4,29.96,North,349,0.0,0.0,98,0.00,,,0.00,Wunderground v.1.15,2013-07-01 12:55:00,
2013-07-01 06:00:00,58.1,57.5,29.96,NNW,338,0.0,0.0,98,0.00,,,0.00,Wunderground v.1.15,2013-07-01 13:00:00,
2013-07-01 06:10:00,58.2,57.6,29.96,NNW,338,0.0,0.0,98,0.00,,,0.00,Wunderground v.1.15,2013-07-01 13:10:00,
2013-07-01 06:20:00,58.3,57.7,29.95,NNE,20,0.0,0.0,98,0.00,,,0.00,Wunderground v.1.15,2013-07-01 13:20:00,
2013-07-01 06:30:00,58.4,57.8,29.96,NNE,20,0.0,0.0,98,0.00,,,0.00,Wunderground v.1.15,2013-07-01 13:30:00,
2013-07-01 06:40:00,58.5,57.9,29.95,WNW,282,0.0,0.0,98,0.00,,,0.00,Wunderground v.1.15,2013-07-01 13:40:00,
2013-07-01 06:50:00,58.6,58.0,29.95,WNW,283,0.0,0.0,98,0.00,,,0.00,Wunderground v.1.15,2013-07-01 13:50:00,
2013-07-01 07:00:00,58.7,58.1,29.95,WNW,283,0.0,0.0,98,0.00,,,0.00,Wunderground v.1.15,2013-07-01 14:00:00,
2013-07-01 07:10:00,58.8,58.2,29.95,WNW,283,0.0,0.0,98,0.00,,,0.00,Wunderground v.1.15,2013-07-01 14:10:00,
2013-07-01 07:20:00,58.9,58.3,29.95,WNW,282,0.0,0.0,98,0.00,,,0.00,Wunderground v.1.15,2013-07-01 14:20:00,
2013-07-01 07:25:00,59.0,58.4,29.95,SSW,205,0.0,0.0,98,0.00,,,0.00,Wunderground v.1.15,2013-07-01 14:25:00,
2013-07-01 07:35:00,59.2,58.3,29.95,South,186,0.0,0.0,97,0.00,,,0.00,Wunderground v.1.15,2013-07-01 14:35:00,
2013-07-01 07:45:00,59.3,58.4,29.95,South,186,0.0,0.0,97,0.00,,,0.00,Wunderground v.1.15,2013-07-01 14:45:00,
2013-07-01 07:55:00,59.5,58.6,29.95,South,186,0.0,0.0,97,0.00,,,0.00,Wunderground v.1.15,2013-07-01 14:55:00,
2013-07-01 08:00:00,59.6,58.7,29.95,South,186,0.0,0.0,97,0.00,,,0.00,Wunderground v.1.15,2013-07-01 15:00:00,
2013-07-01 08:10:00,59.7,58.6,29.95,South,186,0.0,0.0,96,0.00,,,0.00,Wunderground v.1.15,2013-07-01 15:10:00,
2013-07-01 08:20:00,59.9,58.5,29.95,South,186,0.0,0.0,95,0.00,,,0.00,Wunderground v.1.15,2013-07-01 15:20:00,
2013-07-01 08:30:00,59.7,58.3,29.95,SE,144,0.0,0.0,95,0.00,,,0.00,Wunderground v.1.15,2013-07-01 15:30:00,
2013-07-01 08:40:00,59.7,58.6,29.94,SE,144,0.0,0.0,96,0.00,,,0.00,Wunderground v.1.15,2013-07-01 15:40:00,
2013-07-01 08:45:00,59.9,58.8,29.94,NNE,15,0.0,0.0,96,0.00,,,0.00,Wunderground v.1.15,2013-07-01 15:45:00,
2013-07-01 08:55:00,60.3,59.2,29.94,NNE,27,0.0,0.0,96,0.00,,,0.00,Wunderground v.1.15,2013-07-01 15:55:00,
2013-07-01 09:00:00,60.4,59.0,29.94,NNE,27,0.0,0.0,95,0.00,,,0.00,Wunderground v.1.15,2013-07-01 16:00:00,
2013-07-01 09:10:00,60.5,58.8,29.93,NNE,26,0.0,0.0,94,0.00,,,0.00,Wunderground v.1.15,2013-07-01 16:10:00,
2013-07-01 09:20:00,60.7,59.0,29.93,NE,41,0.0,0.0,94,0.00,,,0.00,Wunderground v.1.15,2013-07-01 16:20:00,
2013-07-01 09:30:00,61.1,59.1,29.94,NW,315,0.0,0.0,93,0.00,,,0.00,Wunderground v.1.15,2013-07-01 16:30:00,
2013-07-01 09:40:00,61.3,59.3,29.94,North,355,0.0,0.0,93,0.00,,,0.00,Wunderground v.1.15,2013-07-01 16:40:00,
2013-07-01 09:50:00,62.3,59.9,29.93,North,360,0.0,0.0,92,0.00,,,0.00,Wunderground v.1.15,2013-07-01 16:50:00,
2013-07-01 09:55:00,62.6,59.9,29.93,North,351,0.0,0.0,91,0.00,,,0.00,Wunderground v.1.15,2013-07-01 16:55:00,
2013-07-01 10:05:00,63.5,60.8,29.93,SE,135,0.0,0.0,91,0.00,,,0.00,Wunderground v.1.15,2013-07-01 17:05:00,
2013-07-01 10:15:00,64.4,60.4,29.94,NNW,337,0.0,0.0,87,0.00,,,0.00,Wunderground v.1.15,2013-07-01 17:15:00,
2013-07-01 10:25:00,66.2,61.9,29.93,NW,312,0.0,0.0,86,0.00,,,0.00,Wunderground v.1.15,2013-07-01 17:25:00,
2013-07-01 10:35:00,68.4,63.0,29.93,NNE,26,0.0,0.0,83,0.00,,,0.00,Wunderground v.1.15,2013-07-01 17:35:00,
2013-07-01 10:40:00,69.3,63.2,29.93,SE,130,0.0,0.0,81,0.00,,,0.00,Wunderground v.1.15,2013-07-01 17:40:00,
2013-07-01 10:45:00,69.4,63.3,29.93,SSE,163,0.0,0.0,81,0.00,,,0.00,Wunderground v.1.15,2013-07-01 17:45:00,
2013-07-01 10:55:00,70.3,63.1,29.93,NNW,344,0.0,0.0,78,0.00,,,0.00,Wunderground v.1.15,2013-07-01 17:55:00,
2013-07-01 11:00:00,71.0,63.8,29.93,SE,146,0.0,0.0,78,0.00,,,0.00,Wunderground v.1.15,2013-07-01 18:00:00,
2013-07-01 11:10:00,72.4,63.6,29.93,NE,51,0.0,0.0,74,0.00,,,0.00,Wunderground v.1.15,2013-07-01 18:10:00,
2013-07-01 11:20:00,73.9,65.5,29.93,North,360,0.0,0.0,75,0.00,,,0.00,Wunderground v.1.15,2013-07-01 18:20:00,
2013-07-01 11:30:00,74.9,64.9,29.93,WNW,298,0.0,0.0,71,0.00,,,0.00,Wunderground v.1.15,2013-07-01 18:30:00,
2013-07-01 11:40:00,74.9,64.9,29.93,West,276,0.0,0.0,71,0.00,,,0.00,Wunderground v.1.15,2013-07-01 18:40:00,
2013-07-01 11:50:00,75.6,65.9,29.93,WNW,290,0.0,6.0,72,0.00,,,0.00,Wunderground v.1.15,2013-07-01 18:50:00,
2013-07-01 11:55:00,75.5,65.8,29.93,WNW,290,2.0,2.0,72,0.00,,,0.00,Wunderground v.1.15,2013-07-01 18:55:00,
2013-07-01 12:00:00,75.3,64.8,29.93,West,279,3.0,5.0,70,0.00,,,0.00,Wunderground v.1.15,2013-07-01 19:00:00,
2013-07-01 12:10:00,75.4,65.3,29.94,WSW,242,4.0,4.0,71,0.00,,,0.00,Wunderground v.1.15,2013-07-01 19:10:00,
2013-07-01 12:20:00,74.7,64.3,29.94,NNW,336,4.0,4.0,70,0.00,,,0.00,Wunderground v.1.15,2013-07-01 19:20:00,
2013-07-01 12:30:00,75.4,64.5,29.94,NW,321,3.0,3.0,69,0.00,,,0.00,Wunderground v.1.15,2013-07-01 19:30:00,
2013-07-01 12:35:00,75.5,65.0,29.94,NNE,23,3.0,3.0,70,0.00,,,0.00,Wunderground v.1.15,2013-07-01 19:35:00,
2013-07-01 12:45:00,75.8,65.3,29.94,NNW,338,2.0,4.0,70,0.00,,,0.00,Wunderground v.1.15,2013-07-01 19:45:00,
2013-07-01 12:55:00,75.4,63.7,29.94,NNW,327,4.0,4.0,67,0.00,,,0.00,Wunderground v.1.15,2013-07-01 19:55:00,
2013-07-01 13:00:00,75.7,64.4,29.95,NW,306,3.0,3.0,68,0.00,,,0.00,Wunderground v.1.15,2013-07-01 20:00:00,
2013-07-01 13:10:00,75.7,63.5,29.95,NW,306,3.0,3.0,66,0.00,,,0.00,Wunderground v.1.15,2013-07-01 20:10:00,
2013-07-01 13:20:00,76.0,65.1,29.95,NW,309,4.0,4.0,69,0.00,,,0.00,Wunderground v.1.15,2013-07-01 20:20:00,
2013-07-01 13:30:00,76.2,65.3,29.95,NW,312,3.0,4.0,69,0.00,,,0.00,Wunderground v.1.15,2013-07-01 20:30:00,
2013-07-01 13:40:00,76.0,64.7,29.95,NNW,346,4.0,4.0,68,0.00,,,0.00,Wunderground v.1.15,2013-07-01 20:40:00,
2013-07-01 13:50:00,76.1,63.9,29.95,WNW,294,4.0,4.0,66,0.00,,,0.00,Wunderground v.1.15,2013-07-01 20:50:00,
2013-07-01 14:05:00,77.0,65.2,29.96,WNW,294,3.0,6.0,67,0.00,,,0.00,Wunderground v.1.15,2013-07-01 21:05:00,
2013-07-01 14:15:00,77.0,64.3,29.96,WNW,297,3.0,3.0,65,0.00,,,0.00,Wunderground v.1.15,2013-07-01 21:15:00,
2013-07-01 14:20:00,76.9,64.7,29.96,NE,36,3.0,3.0,66,0.00,,,0.00,Wunderground v.1.15,2013-07-01 21:20:00,
2013-07-01 14:30:00,76.9,64.7,29.96,NW,315,3.0,7.0,66,0.00,,,0.00,Wunderground v.1.15,2013-07-01 21:30:00,
2013-07-01 14:40:00,76.5,64.3,29.96,ENE,65,3.0,5.0,66,0.00,,,0.00,Wunderground v.1.15,2013-07-01 21:40:00,
2013-07-01 14:50:00,77.3,65.9,29.97,West,280,3.0,3.0,68,0.00,,,0.00,Wunderground v.1.15,2013-07-01 21:50:00,
2013-07-01 14:55:00,77.0,65.2,29.97,WNW,296,4.0,5.0,67,0.00,,,0.00,Wunderground v.1.15,2013-07-01 21:55:00,
2013-07-01 15:00:00,76.7,64.5,29.97,NNE,19,5.0,5.0,66,0.00,,,0.00,Wunderground v.1.15,2013-07-01 22:00:00,
2013-07-01 15:10:00,76.5,65.6,29.97,NNW,330,4.0,5.0,69,0.00,,,0.00,Wunderground v.1.15,2013-07-01 22:10:00,
2013-07-01 15:20:00,76.3,65.4,29.97,North,355,5.0,5.0,69,0.00,,,0.00,Wunderground v.1.15,2013-07-01 22:20:00,
2013-07-01 15:30:00,76.4,63.8,29.97,NW,323,3.0,3.0,65,0.00,,,0.00,Wunderground v.1.15,2013-07-01 22:30:00,
2013-07-01 15:40:00,76.0,63.4,29.97,NW,319,4.0,4.0,65,0.00,,,0.00,Wunderground v.1.15,2013-07-01 22:40:00,
2013-07-01 15:50:00,75.8,64.1,29.97,West,269,5.0,5.0,67,0.00,,,0.00,Wunderground v.1.15,2013-07-01 22:50:00,
2013-07-01 15:55:00,75.9,64.2,29.98,WNW,290,4.0,5.0,67,0.00,,,0.00,Wunderground v.1.15,2013-07-01 22:55:00,
2013-07-01 16:00:00,75.6,63.4,29.97,NNW,337,4.0,6.0,66,0.00,,,0.00,Wunderground v.1.15,2013-07-01 23:00:00,
2013-07-01 16:10:00,75.8,64.9,29.98,NNW,341,4.0,4.0,69,0.00,,,0.00,Wunderground v.1.15,2013-07-01 23:10:00,
2013-07-01 16:20:00,75.6,63.9,29.98,WSW,242,3.0,3.0,67,0.00,,,0.00,Wunderground v.1.15,2013-07-01 23:20:00,
2013-07-01 16:30:00,75.2,63.9,29.98,West,265,4.0,4.0,68,0.00,,,0.00,Wunderground v.1.15,2013-07-01 23:30:00,
2013-07-01 16:40:00,74.6,62.9,29.98,West,274,4.0,4.0,67,0.00,,,0.00,Wunderground v.1.15,2013-07-01 23:40:00,
2013-07-01 16:50:00,74.2,63.4,29.98,NNW,334,4.0,4.0,69,0.00,,,0.00,Wunderground v.1.15,2013-07-01 23:50:00,
2013-07-01 16:55:00,73.9,63.5,29.98,NNW,343,4.0,4.0,70,0.00,,,0.00,Wunderground v.1.15,2013-07-01 23:55:00,
2013-07-01 17:00:00,73.3,62.9,29.98,NNE,23,3.0,3.0,70,0.00,,,0.00,Wunderground v.1.15,2013-07-02 00:00:00,
2013-07-01 17:10:00,71.7,62.6,29.98,WNW,295,4.0,5.0,73,0.00,,,0.00,Wunderground v.1.15,2013-07-02 00:10:00,
2013-07-01 17:20:00,70.7,62.0,29.98,NW,305,4.0,4.0,74,0.00,,,0.00,Wunderground v.1.15,2013-07-02 00:20:00,
2013-07-01 17:30:00,70.1,62.2,29.98,NNW,337,4.0,7.0,76,0.00,,,0.00,Wunderground v.1.15,2013-07-02 00:30:00,
2013-07-01 17:35:00,69.7,61.8,29.98,NW,311,4.0,4.0,76,0.00,,,0.00,Wunderground v.1.15,2013-07-02 00:35:00,
2013-07-01 17:45:00,69.0,61.5,29.97,West,275,4.0,6.0,77,0.00,,,0.00,Wunderground v.1.15,2013-07-02 00:45:00,
2013-07-01 17:55:00,68.5,61.7,29.98,NW,324,4.0,4.0,79,0.00,,,0.00,Wunderground v.1.15,2013-07-02 00:55:00,
2013-07-01 18:00:00,68.1,61.7,29.97,WNW,287,4.0,4.0,80,0.00,,,0.00,Wunderground v.1.15,2013-07-02 01:00:00,
2013-07-01 18:10:00,68.2,61.4,29.98,NNW,342,2.0,5.0,79,0.00,,,0.00,Wunderground v.1.15,2013-07-02 01:10:00,
2013-07-01 18:20:00,68.4,62.0,29.97,WNW,289,2.0,2.0,80,0.00,,,0.00,Wunderground v.1.15,2013-07-02 01:20:00,
2013-07-01 18:30:00,68.6,61.8,29.97,NNW,328,4.0,4.0,79,0.00,,,0.00,Wunderground v.1.15,2013-07-02 01:30:00,
2013-07-01 18:40:00,69.0,62.2,29.97,NW,316,2.0,4.0,79,0.00,,,0.00,Wunderground v.1.15,2013-07-02 01:40:00,
2013-07-01 18:50:00,69.3,62.5,29.97,West,271,2.0,2.0,79,0.00,,,0.00,Wunderground v.1.15,2013-07-02 01:50:00,
2013-07-01 18:55:00,69.4,62.6,29.97,NNW,337,2.0,2.0,79,0.00,,,0.00,Wunderground v.1.15,2013-07-02 01:55:00,
2013-07-01 19:00:00,69.5,62.3,29.97,WNW,287,2.0,4.0,78,0.00,,,0.00,Wunderground v.1.15,2013-07-02 02:00:00,
2013-07-01 19:10:00,69.3,62.5,29.98,NW,325,3.0,3.0,79,0.00,,,0.00,Wunderground v.1.15,2013-07-02 02:10:00,
2013-07-01 19:20:00,69.4,61.9,29.98,WNW,300,2.0,7.0,77,0.00,,,0.00,Wunderground v.1.15,2013-07-02 02:20:00,
2013-07-01 19:30:00,67.9,61.1,29.98,West,273,3.0,6.0,79,0.00,,,0.00,Wunderground v.1.15,2013-07-02 02:30:00,
2013-07-01 19:40:00,66.0,60.3,29.98,West,280,5.0,6.0,82,0.00,,,0.00,Wunderground v.1.15,2013-07-02 02:40:00,
2013-07-01 19:50:00,64.8,59.9,29.99,NW,306,4.0,4.0,84,0.00,,,0.00,Wunderground v.1.15,2013-07-02 02:50:00,
2013-07-01 19:55:00,64.5,59.9,29.99,West,265,3.0,4.0,85,0.00,,,0.00,Wunderground v.1.15,2013-07-02 02:55:00,
2013-07-01 20:00:00,64.3,60.0,29.98,NW,309,2.0,3.0,86,0.00,,,0.00,Wunderground v.1.15,2013-07-02 03:00:00,
2013-07-01 20:10:00,63.8,59.9,29.98,North,5,1.0,1.0,87,0.00,,,0.00,Wunderground v.1.15,2013-07-02 03:10:00,
2013-07-01 20:20:00,63.5,59.9,29.99,NW,304,1.0,1.0,88,0.00,,,0.00,Wunderground v.1.15,2013-07-02 03:20:00,
2013-07-01 20:25:00,63.2,59.6,29.99,WNW,302,1.0,1.0,88,0.00,,,0.00,Wunderground v.1.15,2013-07-02 03:25:00,
2013-07-01 20:35:00,62.5,59.2,29.99,West,277,1.0,1.0,89,0.00,,,0.00,Wunderground v.1.15,2013-07-02 03:35:00,
2013-07-01 20:45:00,62.0,59.3,29.99,NW,317,0.0,0.0,91,0.00,,,0.00,Wunderground v.1.15,2013-07-02 03:45:00,
2013-07-01 20:50:00,61.8,59.1,29.99,West,267,1.0,1.0,91,0.00,,,0.00,Wunderground v.1.15,2013-07-02 03:50:00,
2013-07-01 20:55:00,61.7,59.4,29.99,WNW,302,2.0,2.0,92,0.00,,,0.00,Wunderground v.1.15,2013-07-02 03:55:00,
2013-07-01 21:01:00,61.6,59.3,29.99,NNW,339,2.0,2.0,92,0.00,,,0.00,Wunderground v.1.15,2013-07-02 04:01:00,
2013-07-01 21:05:00,61.5,59.2,30.00,North,355,1.0,2.0,92,0.00,,,0.00,Wunderground v.1.15,2013-07-02 04:05:00,
2013-07-01 21:10:00,61.4,59.1,30.00,NW,318,2.0,2.0,92,0.00,,,0.00,Wunderground v.1.15,2013-07-02 04:10:00,
2013-07-01 21:20:00,61.1,58.8,30.00,North,360,3.0,4.0,92,0.00,,,0.00,Wunderground v.1.15,2013-07-02 04:20:00,
2013-07-01 21:25:00,61.0,59.0,30.00,NW,320,3.0,3.0,93,0.00,,,0.00,Wunderground v.1.15,2013-07-02 04:25:00,
2013-07-01 21:30:00,60.8,58.8,30.00,NW,312,2.0,3.0,93,0.00,,,0.00,Wunderground v.1.15,2013-07-02 04:30:00,
2013-07-01 21:40:00,60.7,58.7,30.01,West,276,3.0,3.0,93,0.00,,,0.00,Wunderground v.1.15,2013-07-02 04:40:00,
2013-07-01 21:50:00,60.4,58.7,30.02,WNW,298,2.0,3.0,94,0.00,,,0.00,Wunderground v.1.15,2013-07-02 04:50:00,
2013-07-01 21:55:00,60.4,58.7,30.02,NW,320,2.0,4.0,94,0.00,,,0.00,Wunderground v.1.15,2013-07-02 04:55:00,
2013-07-01 22:00:00,60.3,58.6,30.02,NW,313,2.0,2.0,94,0.00,,,0.00,Wunderground v.1.15,2013-07-02 05:00:00,
2013-07-01 22:10:00,60.2,58.5,30.02,WNW,288,3.0,4.0,94,0.00,,,0.00,Wunderground v.1.15,2013-07-02 05:10:00,
2013-07-01 22:15:00,60.1,58.4,30.02,NNW,331,3.0,4.0,94,0.00,,,0.00,Wunderground v.1.15,2013-07-02 05:15:00,
2013-07-01 22:20:00,60.0,58.3,30.03,NNE,30,3.0,3.0,94,0.00,,,0.00,Wunderground v.1.15,2013-07-02 05:20:00,
2013-07-01 22:30:00,59.8,58.4,30.03,NW,311,4.0,4.0,95,0.00,,,0.00,Wunderground v.1.15,2013-07-02 05:30:00,
2013-07-01 22:40:00,59.8,58.4,30.03,NW,315,2.0,2.0,95,0.00,,,0.00,Wunderground v.1.15,2013-07-02 05:40:00,
2013-07-01 22:50:00,59.8,58.4,30.03,NNW,345,1.0,1.0,95,0.00,,,0.00,Wunderground v.1.15,2013-07-02 05:50:00,
2013-07-01 23:00:00,59.8,58.4,30.03,NNW,336,1.0,1.0,95,0.00,,,0.00,Wunderground v.1.15,2013-07-02 06:00:00,
2013-07-01 23:10:00,59.8,58.4,30.03,WNW,296,1.0,2.0,95,0.00,,,0.00,Wunderground v.1.15,2013-07-02 06:10:00,
2013-07-01 23:20:00,59.8,58.7,30.03,NNW,327,0.0,1.0,96,0.00,,,0.00,Wunderground v.1.15,2013-07-02 06:20:00,
2013-07-01 23:30:00,59.8,58.7,30.03,NW,321,1.0,1.0,96,0.00,,,0.00,Wunderground v.1.15,2013-07-02 06:30:00,
2013-07-01 23:40:00,59.9,58.8,30.03,NNW,346,1.0,1.0,96,0.00,,,0.00,Wunderground v.1.15,2013-07-02 06:40:00,
2013-07-01 23:50:00,59.9,58.5,30.03,NW,304,1.0,1.0,95,0.00,,,0.00,Wunderground v.1.15,2013-07-02 06:50:00,
2013-07-01 23:55:00,59.9,58.5,30.03,WNW,283,1.0,1.0,95,0.00,,,0.00,Wunderground v.1.15,2013-07-02 06:55:00,